Time;durP1;ratioP1;P1;durP2;ratioP2;P2;SDS_P1;SDS_P2;PMS_P1;PMS_P2;Temp;Humidity;BMP_temperature;BMP_pressure;BME280_temperature;BME280_humidity;BME280_pressure;Samples;Min_cycle;Max_cycle;Signal;HPM_P1;HPM_P2
2022/03/24 00:00:39;;;;;;;24.23;17.17;;;7.40;53.10;;;;;;5074185;28;20304;-69
2022/03/24 00:03:06;;;;;;;25.73;17.33;;;7.40;53.20;;;;;;5074638;28;20267;-68
2022/03/24 00:05:33;;;;;;;26.30;17.13;;;7.30;53.20;;;;;;5071948;28;20332;-68
2022/03/24 00:08:00;;;;;;;25.53;17.17;;;7.30;53.40;;;;;;5072149;28;20296;-68
2022/03/24 00:10:27;;;;;;;26.87;17.57;;;7.20;53.50;;;;;;5074025;28;20209;-68
2022/03/24 00:12:56;;;;;;;25.53;17.00;;;7.20;53.60;;;;;;5075053;28;20215;-69
2022/03/24 00:15:25;;;;;;;24.83;17.13;;;7.20;53.80;;;;;;5073515;28;20552;-68
2022/03/24 00:17:52;;;;;;;26.87;17.83;;;7.10;53.70;;;;;;5073576;28;20205;-67
2022/03/24 00:20:19;;;;;;;23.57;16.87;;;7.10;53.90;;;;;;5075934;28;20209;-68
2022/03/24 00:22:46;;;;;;;25.37;17.00;;;7.10;54.10;;;;;;5065255;28;20213;-68
2022/03/24 00:25:13;;;;;;;25.27;16.60;;;7.00;54.30;;;;;;5069644;28;20228;-69
2022/03/24 00:27:40;;;;;;;23.60;16.47;;;7.00;54.40;;;;;;5075364;28;20304;-68
2022/03/24 00:30:08;;;;;;;25.27;15.43;;;6.90;54.40;;;;;;5078950;28;20223;-69
2022/03/24 00:32:37;;;;;;;24.90;15.43;;;6.80;54.40;;;;;;5064821;28;20208;-69
2022/03/24 00:35:05;;;;;;;22.90;15.43;;;6.80;54.60;;;;;;5065256;28;20260;-68
2022/03/24 00:37:32;;;;;;;20.60;14.57;;;6.70;54.60;;;;;;5069126;28;20233;-68
2022/03/24 00:40:00;;;;;;;22.47;15.53;;;6.70;54.80;;;;;;5071466;28;20231;-68
2022/03/24 00:42:27;;;;;;;24.97;15.60;;;6.60;54.80;;;;;;5062609;28;20229;-69
2022/03/24 00:44:54;;;;;;;24.67;14.80;;;6.60;54.80;;;;;;5080449;28;20213;-68
2022/03/24 00:47:21;;;;;;;21.33;14.37;;;6.60;54.90;;;;;;5075426;28;20218;-68
2022/03/24 00:49:49;;;;;;;20.03;14.13;;;6.60;55.00;;;;;;5077259;28;20208;-68
2022/03/24 00:52:16;;;;;;;23.73;15.10;;;6.50;55.00;;;;;;5065525;28;20256;-68
2022/03/24 00:54:43;;;;;;;22.97;14.73;;;6.50;55.10;;;;;;5069534;28;20604;-68
2022/03/24 00:57:10;;;;;;;22.53;14.47;;;6.50;55.30;;;;;;5070649;28;20237;-67
2022/03/24 00:59:37;;;;;;;21.43;13.80;;;6.50;55.30;;;;;;5069300;28;20201;-68
2022/03/24 01:02:06;;;;;;;20.30;14.03;;;6.50;55.90;;;;;;5075169;28;20209;-68
2022/03/24 01:04:33;;;;;;;22.07;14.47;;;6.40;55.30;;;;;;5077439;28;20233;-68
2022/03/24 01:07:03;;;;;;;22.70;14.70;;;6.40;55.30;;;;;;5073160;28;20651;-69
2022/03/24 01:09:30;;;;;;;19.83;13.33;;;6.40;55.60;;;;;;5077386;28;20716;-68
2022/03/24 01:11:57;;;;;;;21.77;14.43;;;6.30;55.50;;;;;;5076676;28;20197;-68
2022/03/24 01:14:25;;;;;;;21.07;14.53;;;6.30;56.30;;;;;;5076797;28;20197;-68
2022/03/24 01:16:52;;;;;;;20.97;14.00;;;6.30;55.90;;;;;;5074352;28;20224;-68
2022/03/24 01:19:19;;;;;;;19.87;13.87;;;6.20;55.80;;;;;;5057674;28;20225;-69
2022/03/24 01:21:45;;;;;;;18.57;13.57;;;6.20;56.00;;;;;;5066571;28;20221;-68
2022/03/24 01:24:14;;;;;;;21.53;13.67;;;6.10;56.00;;;;;;5075658;28;20201;-68
2022/03/24 01:26:41;;;;;;;20.00;13.90;;;6.00;56.10;;;;;;5068772;28;20215;-69
2022/03/24 01:29:08;;;;;;;21.80;13.57;;;6.00;56.30;;;;;;5076106;28;20243;-68
2022/03/24 01:31:35;;;;;;;18.93;13.10;;;6.00;56.40;;;;;;5073960;28;20220;-68
2022/03/24 01:34:02;;;;;;;18.53;12.93;;;6.00;56.50;;;;;;5070573;28;20209;-68
2022/03/24 01:36:29;;;;;;;18.90;14.00;;;5.90;56.50;;;;;;5076184;28;20288;-68
2022/03/24 01:38:56;;;;;;;19.03;12.63;;;6.00;56.60;;;;;;5071421;28;20205;-68
2022/03/24 01:41:24;;;;;;;20.87;13.83;;;5.90;56.60;;;;;;5074237;28;20213;-68
2022/03/24 01:43:51;;;;;;;17.57;12.57;;;5.90;56.70;;;;;;5066393;28;20687;-68
2022/03/24 01:46:22;;;;;;;19.33;13.27;;;6.00;56.80;;;;;;5074827;28;20233;-68
2022/03/24 01:48:49;;;;;;;22.80;12.97;;;6.00;56.70;;;;;;5072520;28;20662;-69
2022/03/24 01:51:16;;;;;;;20.60;13.63;;;6.00;56.80;;;;;;5076075;28;20298;-68
2022/03/24 01:53:43;;;;;;;17.67;13.17;;;6.00;56.80;;;;;;5075743;28;20611;-69
2022/03/24 01:56:11;;;;;;;19.50;13.77;;;6.00;56.80;;;;;;5074791;28;20202;-68
2022/03/24 01:58:42;;;;;;;19.93;13.60;;;6.10;57.00;;;;;;5075573;28;20206;-69
2022/03/24 02:01:29;;;;;;;19.07;13.03;;;6.10;56.90;;;;;;5075994;28;20654;-70
2022/03/24 02:03:58;;;;;;;21.00;14.17;;;6.10;57.00;;;;;;5074813;28;20608;-70
2022/03/24 02:06:25;;;;;;;19.13;13.63;;;6.10;57.10;;;;;;5075168;28;20290;-71
2022/03/24 02:08:55;;;;;;;21.23;14.20;;;6.10;57.10;;;;;;5073143;28;20201;-70
2022/03/24 02:11:22;;;;;;;21.57;14.67;;;6.10;57.20;;;;;;5075237;28;20209;-70
2022/03/24 02:13:50;;;;;;;21.13;14.77;;;6.00;57.30;;;;;;5074497;28;20239;-70
2022/03/24 02:16:17;;;;;;;23.13;15.63;;;6.10;57.50;;;;;;5065820;28;20198;-71
2022/03/24 02:18:44;;;;;;;21.00;14.57;;;6.10;57.60;;;;;;5070822;28;20259;-69
2022/03/24 02:21:14;;;;;;;22.20;15.00;;;6.10;57.70;;;;;;5071013;28;20225;-71
2022/03/24 02:23:43;;;;;;;25.57;16.30;;;6.10;57.70;;;;;;5073555;28;20205;-70
2022/03/24 02:26:11;;;;;;;25.87;15.57;;;6.10;57.70;;;;;;5071941;28;20565;-70
2022/03/24 02:28:40;;;;;;;25.37;15.30;;;6.00;57.90;;;;;;5074044;28;20216;-70
2022/03/24 02:31:09;;;;;;;23.47;15.57;;;6.00;57.90;;;;;;5060820;28;20213;-71
2022/03/24 02:33:37;;;;;;;21.37;15.67;;;6.00;58.70;;;;;;5074396;28;20209;-70
2022/03/24 02:36:04;;;;;;;25.67;15.43;;;6.00;58.20;;;;;;5068040;28;20676;-71
2022/03/24 02:38:32;;;;;;;24.43;16.03;;;5.90;58.30;;;;;;5064231;28;20229;-70
2022/03/24 02:41:01;;;;;;;27.20;15.87;;;5.90;58.30;;;;;;5066894;28;20297;-71
2022/03/24 02:43:28;;;;;;;25.57;16.10;;;6.00;58.40;;;;;;5066233;28;20579;-70
2022/03/24 02:45:55;;;;;;;23.07;15.30;;;6.00;58.40;;;;;;5073482;28;20324;-71
2022/03/24 02:48:22;;;;;;;23.83;16.07;;;6.00;58.50;;;;;;5069224;28;20209;-70
2022/03/24 02:50:49;;;;;;;24.40;16.00;;;6.00;58.50;;;;;;5074506;28;20211;-70
2022/03/24 02:53:17;;;;;;;21.07;15.43;;;6.00;58.50;;;;;;5071989;28;20213;-69
2022/03/24 02:55:43;;;;;;;21.30;15.53;;;6.00;58.40;;;;;;5062004;28;20211;-70
2022/03/24 02:58:12;;;;;;;26.73;16.00;;;6.00;59.00;;;;;;5063302;28;20240;-70
2022/03/24 03:00:39;;;;;;;23.77;15.90;;;6.10;58.60;;;;;;5060901;28;20288;-70
2022/03/24 03:03:06;;;;;;;24.10;16.57;;;6.10;58.50;;;;;;5060700;28;20217;-71
2022/03/24 03:05:33;;;;;;;20.87;15.10;;;6.10;59.10;;;;;;5069352;28;20256;-70
2022/03/24 03:07:59;;;;;;;22.50;15.83;;;6.10;58.50;;;;;;5072119;28;20292;-71
2022/03/24 03:10:26;;;;;;;22.97;16.17;;;6.10;58.50;;;;;;5061996;28;20197;-70
2022/03/24 03:12:54;;;;;;;27.33;16.73;;;6.20;58.50;;;;;;5072803;28;20292;-70
2022/03/24 03:15:22;;;;;;;23.77;15.80;;;6.10;58.50;;;;;;5072766;28;20209;-70
2022/03/24 03:17:49;;;;;;;23.07;16.50;;;6.10;58.50;;;;;;5073329;28;20236;-70
2022/03/24 03:20:16;;;;;;;26.17;16.83;;;6.00;58.50;;;;;;5073621;28;20636;-70
2022/03/24 03:22:42;;;;;;;23.70;16.23;;;6.10;58.50;;;;;;5068300;28;20303;-70
2022/03/24 03:25:10;;;;;;;23.57;16.50;;;6.10;58.60;;;;;;5073142;28;20216;-70
2022/03/24 03:27:37;;;;;;;25.63;15.87;;;6.00;58.80;;;;;;5068770;28;20241;-70
2022/03/24 03:30:05;;;;;;;22.03;15.50;;;6.00;58.90;;;;;;5063668;28;20221;-70
2022/03/24 03:32:33;;;;;;;22.23;16.13;;;6.00;59.10;;;;;;5067381;28;20259;-72
2022/03/24 03:35:01;;;;;;;22.17;16.17;;;6.00;59.10;;;;;;5073822;28;20216;-70
2022/03/24 03:37:28;;;;;;;25.90;16.27;;;6.00;59.30;;;;;;5067232;28;20211;-69
2022/03/24 03:39:54;;;;;;;23.93;16.30;;;5.90;59.30;;;;;;5058209;28;20705;-70
2022/03/24 03:42:23;;;;;;;23.73;15.53;;;5.90;59.30;;;;;;5069725;28;20250;-70
2022/03/24 03:44:50;;;;;;;24.30;15.97;;;5.90;59.30;;;;;;5069026;28;20674;-70
2022/03/24 03:47:17;;;;;;;26.97;16.03;;;5.90;59.40;;;;;;5071757;28;20205;-70
2022/03/24 03:49:45;;;;;;;24.17;16.70;;;5.90;59.40;;;;;;5077759;28;20280;-70
2022/03/24 03:52:12;;;;;;;21.30;15.00;;;5.90;59.50;;;;;;5070959;28;20289;-69
2022/03/24 03:54:39;;;;;;;25.93;16.27;;;6.00;59.60;;;;;;5069611;28;20716;-70
2022/03/24 03:57:06;;;;;;;24.20;16.37;;;6.00;59.40;;;;;;5064929;28;20278;-70
2022/03/24 03:59:33;;;;;;;28.23;18.00;;;6.00;59.40;;;;;;5077177;28;20865;-69
2022/03/24 04:01:59;;;;;;;24.57;17.73;;;6.00;59.30;;;;;;5073620;28;20236;-70
2022/03/24 04:04:27;;;;;;;25.90;17.90;;;6.00;59.40;;;;;;5067212;28;20205;-70
2022/03/24 04:06:55;;;;;;;29.67;19.33;;;5.90;59.40;;;;;;5063342;28;20229;-70
2022/03/24 04:09:22;;;;;;;28.57;19.77;;;6.00;59.60;;;;;;5065612;28;20232;-70
2022/03/24 04:11:49;;;;;;;29.87;19.83;;;6.00;59.60;;;;;;5074356;28;20232;-70
2022/03/24 04:14:15;;;;;;;27.90;19.27;;;6.00;59.60;;;;;;5062928;28;20283;-70
2022/03/24 04:16:42;;;;;;;28.00;18.43;;;6.00;59.50;;;;;;5074922;28;20278;-70
2022/03/24 04:19:09;;;;;;;27.13;18.73;;;6.00;59.60;;;;;;5075429;28;20232;-70
2022/03/24 04:21:36;;;;;;;27.63;19.03;;;6.00;59.60;;;;;;5066595;28;20226;-70
2022/03/24 04:24:07;;;;;;;30.13;19.23;;;6.00;59.60;;;;;;5074010;28;20581;-69
2022/03/24 04:26:34;;;;;;;29.47;20.33;;;6.00;59.60;;;;;;5076075;28;20363;-69
2022/03/24 04:29:01;;;;;;;33.63;20.00;;;6.00;59.60;;;;;;5062352;28;20221;-70
2022/03/24 04:31:28;;;;;;;30.43;19.77;;;6.10;59.70;;;;;;5075318;28;20721;-68
2022/03/24 04:33:55;;;;;;;32.47;20.47;;;6.00;59.50;;;;;;5060255;28;20208;-70
2022/03/24 04:36:21;;;;;;;29.17;20.20;;;5.90;59.50;;;;;;5063447;28;20265;-69
2022/03/24 04:38:48;;;;;;;30.43;19.40;;;5.90;59.80;;;;;;5070464;28;20209;-70
2022/03/24 04:41:17;;;;;;;30.23;19.53;;;5.80;60.00;;;;;;5075813;28;20638;-69
2022/03/24 04:43:43;;;;;;;31.27;20.17;;;5.70;60.30;;;;;;5075748;28;20233;-69
2022/03/24 04:46:10;;;;;;;29.33;20.07;;;5.70;60.60;;;;;;5069041;28;20225;-70
2022/03/24 04:48:37;;;;;;;36.53;23.20;;;5.60;60.70;;;;;;5071157;28;20221;-70
2022/03/24 04:51:06;;;;;;;28.50;20.27;;;5.60;61.10;;;;;;5076911;28;20301;-70
2022/03/24 04:53:33;;;;;;;29.40;20.17;;;5.50;61.50;;;;;;5075842;28;20212;-70
2022/03/24 04:56:00;;;;;;;32.90;21.47;;;5.40;61.80;;;;;;5074175;28;20209;-70
2022/03/24 04:58:28;;;;;;;30.67;20.90;;;5.40;62.00;;;;;;5074122;28;20670;-69
2022/03/24 05:00:55;;;;;;;32.37;20.63;;;5.30;62.30;;;;;;5075479;28;20233;-70
2022/03/24 05:03:22;;;;;;;33.77;22.87;;;5.30;62.70;;;;;;5067801;28;20288;-70
2022/03/24 05:05:49;;;;;;;32.43;20.47;;;5.20;62.80;;;;;;5074506;28;20243;-70
2022/03/24 05:08:16;;;;;;;33.57;22.30;;;5.20;63.30;;;;;;5075688;28;20241;-70
2022/03/24 05:10:43;;;;;;;35.37;22.20;;;5.20;63.50;;;;;;5076431;28;20546;-70
2022/03/24 05:13:10;;;;;;;34.10;22.40;;;5.20;63.80;;;;;;5065246;28;20549;-70
2022/03/24 05:15:38;;;;;;;34.10;22.17;;;5.20;63.90;;;;;;5068683;28;20236;-72
2022/03/24 05:18:06;;;;;;;31.90;21.47;;;5.20;64.20;;;;;;5074816;28;20213;-70
2022/03/24 05:20:33;;;;;;;33.77;21.80;;;5.20;64.30;;;;;;5075269;28;20229;-70
2022/03/24 05:23:01;;;;;;;33.30;21.43;;;5.20;64.50;;;;;;5075981;28;20697;-69
2022/03/24 05:25:28;;;;;;;34.67;22.83;;;5.20;64.70;;;;;;5073665;28;20231;-70
2022/03/24 05:27:55;;;;;;;35.60;22.73;;;5.20;64.80;;;;;;5073990;28;20212;-70
2022/03/24 05:30:22;;;;;;;38.20;23.17;;;5.20;65.10;;;;;;5075787;28;20299;-71
2022/03/24 05:32:50;;;;;;;35.93;23.40;;;5.30;65.20;;;;;;5065066;28;20623;-70
2022/03/24 05:35:18;;;;;;;36.00;22.37;;;5.30;65.40;;;;;;5072780;28;20569;-70
2022/03/24 05:37:44;;;;;;;37.10;23.37;;;5.20;65.70;;;;;;5071032;28;20202;-69
2022/03/24 05:40:13;;;;;;;39.57;24.80;;;5.20;66.00;;;;;;5063677;28;20212;-69
2022/03/24 05:42:40;;;;;;;31.73;22.53;;;5.30;66.10;;;;;;5062508;28;20356;-70
2022/03/24 05:45:07;;;;;;;39.97;24.07;;;5.30;66.20;;;;;;5059511;28;20278;-70
2022/03/24 05:47:34;;;;;;;35.97;24.13;;;5.30;66.30;;;;;;5067545;28;20585;-69
2022/03/24 05:50:03;;;;;;;38.13;24.60;;;5.30;66.30;;;;;;5071582;28;20208;-70
2022/03/24 05:52:29;;;;;;;33.50;24.27;;;5.40;66.70;;;;;;5074303;28;20631;-70
2022/03/24 05:54:56;;;;;;;37.07;24.30;;;5.50;66.60;;;;;;5073031;28;20208;-70
2022/03/24 05:57:24;;;;;;;36.53;24.90;;;5.60;66.70;;;;;;5072946;28;20198;-69
2022/03/24 05:59:51;;;;;;;40.23;23.27;;;5.70;66.50;;;;;;5075070;28;20217;-70
2022/03/24 06:02:18;;;;;;;34.10;23.97;;;5.80;66.30;;;;;;5071579;28;20237;-70
2022/03/24 06:04:45;;;;;;;38.73;25.93;;;5.90;66.00;;;;;;5074810;28;20205;-70
2022/03/24 06:07:15;;;;;;;40.27;26.30;;;6.00;65.60;;;;;;5056372;28;20224;-71
2022/03/24 06:09:42;;;;;;;38.53;25.77;;;6.10;65.60;;;;;;5065406;28;20296;-70
2022/03/24 06:12:10;;;;;;;41.77;25.03;;;6.30;65.10;;;;;;5073264;28;20209;-70
2022/03/24 06:14:37;;;;;;;39.17;24.23;;;6.50;64.90;;;;;;5075107;28;20205;-70
2022/03/24 06:17:05;;;;;;;38.47;25.03;;;6.80;64.40;;;;;;5068080;28;20210;-71
2022/03/24 06:19:35;;;;;;;35.20;23.07;;;7.10;63.50;;;;;;5062370;28;20291;-70
2022/03/24 06:22:02;;;;;;;33.43;22.67;;;7.20;62.20;;;;;;5069911;28;20316;-70
2022/03/24 06:24:30;;;;;;;35.97;23.70;;;7.30;61.40;;;;;;5074354;28;20649;-68
2022/03/24 06:26:58;;;;;;;38.37;24.23;;;7.30;61.20;;;;;;5071464;28;20228;-70
2022/03/24 06:29:25;;;;;;;35.43;23.60;;;7.30;61.80;;;;;;5069106;28;20666;-71
2022/03/24 06:31:52;;;;;;;37.20;24.23;;;7.30;61.00;;;;;;5059526;28;20210;-70
2022/03/24 06:34:19;;;;;;;37.00;23.70;;;7.30;60.80;;;;;;5072843;28;20291;-69
2022/03/24 06:36:46;;;;;;;37.67;24.13;;;7.30;60.80;;;;;;5074264;28;20268;-70
2022/03/24 06:39:13;;;;;;;35.53;23.90;;;7.40;61.00;;;;;;5072270;28;20657;-72
2022/03/24 06:41:42;;;;;;;36.03;24.53;;;7.40;60.80;;;;;;5068206;28;20626;-70
2022/03/24 06:44:09;;;;;;;31.37;21.73;;;7.50;60.90;;;;;;5071198;28;20315;-70
2022/03/24 06:46:38;;;;;;;37.37;24.27;;;7.60;60.60;;;;;;5063681;28;20559;-70
2022/03/24 06:49:06;;;;;;;32.07;21.53;;;7.70;60.40;;;;;;5063188;28;20214;-69
2022/03/24 06:51:34;;;;;;;37.10;22.10;;;7.70;60.00;;;;;;5063564;28;20209;-72
2022/03/24 06:54:01;;;;;;;34.20;23.23;;;7.80;59.80;;;;;;5070606;28;20197;-72
2022/03/24 06:56:29;;;;;;;32.43;22.07;;;7.90;59.80;;;;;;5069832;28;20231;-73
2022/03/24 06:58:57;;;;;;;32.87;22.20;;;7.90;59.50;;;;;;5066577;28;20635;-73
2022/03/24 07:01:24;;;;;;;30.93;20.17;;;8.00;59.30;;;;;;5070278;28;20315;-67
2022/03/24 07:03:51;;;;;;;29.93;20.53;;;8.10;59.10;;;;;;5070736;28;20285;-71
2022/03/24 07:06:20;;;;;;;28.80;20.10;;;8.20;58.90;;;;;;5070047;28;20271;-70
2022/03/24 07:08:47;;;;;;;32.33;20.83;;;8.40;58.80;;;;;;5065643;28;20202;-69
2022/03/24 07:11:14;;;;;;;29.67;19.20;;;8.50;58.30;;;;;;5061072;28;20643;-71
2022/03/24 07:13:41;;;;;;;26.77;19.53;;;8.60;57.90;;;;;;5061275;28;20209;-71
2022/03/24 07:16:09;;;;;;;26.73;18.03;;;8.80;57.80;;;;;;5054986;28;20622;-70
2022/03/24 07:18:36;;;;;;;26.07;18.17;;;8.90;57.60;;;;;;5059661;28;20362;-70
2022/03/24 07:21:03;;;;;;;27.53;19.33;;;9.00;57.20;;;;;;5068345;28;20427;-71
2022/03/24 07:23:30;;;;;;;31.30;19.23;;;9.10;56.90;;;;;;5064400;28;20202;-71
2022/03/24 07:25:57;;;;;;;24.50;17.50;;;9.30;56.90;;;;;;5066888;28;20206;-70
2022/03/24 07:28:24;;;;;;;22.23;16.30;;;9.60;56.40;;;;;;5065315;28;20247;-71
2022/03/24 07:30:51;;;;;;;25.73;17.07;;;9.80;55.80;;;;;;5069030;28;20210;-69
2022/03/24 07:33:21;;;;;;;23.33;15.90;;;9.90;55.50;;;;;;5068577;28;20617;-70
2022/03/24 07:35:49;;;;;;;21.20;14.33;;;10.00;54.50;;;;;;5073127;28;21717;-71
2022/03/24 07:38:16;;;;;;;18.57;14.40;;;10.10;54.10;;;;;;5065246;28;20225;-70
2022/03/24 07:40:43;;;;;;;21.07;14.50;;;10.10;53.70;;;;;;5057838;28;20201;-72
2022/03/24 07:43:11;;;;;;;19.30;14.47;;;10.20;53.50;;;;;;5067162;28;20319;-73
2022/03/24 07:45:38;;;;;;;21.13;14.33;;;10.20;53.70;;;;;;5073344;28;20323;-70
2022/03/24 07:48:10;;;;;;;24.77;12.83;;;10.30;53.70;;;;;;5075877;28;20276;-69
2022/03/24 07:50:40;;;;;;;23.07;13.20;;;10.50;53.40;;;;;;5075775;28;20285;-68
2022/03/24 07:53:33;;;;;;;21.17;12.40;;;10.60;53.10;;;;;;5076018;28;20221;-67
2022/03/24 07:56:01;;;;;;;22.00;12.13;;;10.70;52.80;;;;;;5063119;28;20285;-67
2022/03/24 07:58:28;;;;;;;17.40;11.70;;;10.90;52.80;;;;;;5068451;28;20220;-67
2022/03/24 08:00:57;;;;;;;17.27;10.93;;;11.10;52.30;;;;;;5072762;28;20451;-67
2022/03/24 08:03:25;;;;;;;20.80;12.07;;;11.30;51.80;;;;;;5063355;28;20629;-68
2022/03/24 08:05:53;;;;;;;15.83;9.47;;;11.50;51.50;;;;;;5058081;28;20209;-69
2022/03/24 08:08:21;;;;;;;15.63;8.90;;;11.70;51.20;;;;;;5064143;28;20678;-68
2022/03/24 08:10:50;;;;;;;16.97;9.20;;;11.80;50.60;;;;;;5059983;28;20293;-68
2022/03/24 08:13:19;;;;;;;12.33;9.10;;;11.90;50.20;;;;;;5071761;28;20638;-66
2022/03/24 08:15:49;;;;;;;11.73;8.57;;;12.00;49.60;;;;;;5062722;28;20261;-69
2022/03/24 08:18:17;;;;;;;9.80;6.63;;;12.10;49.30;;;;;;5068537;28;20235;-69
2022/03/24 08:20:47;;;;;;;9.27;6.50;;;12.20;48.40;;;;;;5066341;28;20339;-69
2022/03/24 08:23:16;;;;;;;7.83;6.43;;;12.20;48.40;;;;;;5073219;28;20205;-70
2022/03/24 08:25:44;;;;;;;7.63;6.80;;;12.30;47.90;;;;;;5071479;28;20590;-69
2022/03/24 08:28:12;;;;;;;9.90;7.07;;;12.50;47.50;;;;;;5067924;28;20676;-69
2022/03/24 08:30:39;;;;;;;11.70;7.90;;;12.70;47.20;;;;;;5066971;28;20201;-70
2022/03/24 08:33:06;;;;;;;10.27;7.80;;;12.80;46.90;;;;;;5074678;28;20209;-70
2022/03/24 08:35:34;;;;;;;9.10;7.37;;;13.00;46.60;;;;;;5071430;28;20608;-72
2022/03/24 08:38:01;;;;;;;10.37;7.83;;;13.20;46.30;;;;;;5067657;28;20220;-71
2022/03/24 08:40:29;;;;;;;12.17;8.80;;;13.20;45.90;;;;;;5064930;28;20633;-71
2022/03/24 08:42:56;;;;;;;13.43;8.90;;;13.20;45.70;;;;;;5070370;28;20233;-71
2022/03/24 08:45:25;;;;;;;8.53;7.63;;;13.30;45.80;;;;;;5074036;28;20201;-70
2022/03/24 08:47:53;;;;;;;14.27;10.30;;;13.40;45.80;;;;;;5066035;28;20257;-70
2022/03/24 08:50:23;;;;;;;12.57;9.93;;;13.50;45.00;;;;;;5067532;28;20210;-70
2022/03/24 08:52:50;;;;;;;16.40;11.80;;;13.60;45.20;;;;;;5074395;28;20642;-71
2022/03/24 08:55:17;;;;;;;15.40;10.10;;;13.70;45.50;;;;;;5073512;28;20240;-71
2022/03/24 08:57:46;;;;;;;13.63;9.40;;;14.00;45.70;;;;;;5068632;28;20205;-70
2022/03/24 09:00:17;;;;;;;13.40;9.33;;;14.20;45.10;;;;;;5068622;28;20205;-70
2022/03/24 09:02:48;;;;;;;12.13;8.60;;;14.50;44.70;;;;;;5063015;28;20279;-70
2022/03/24 09:05:16;;;;;;;12.97;8.03;;;14.70;44.10;;;;;;5067273;28;20210;-70
2022/03/24 09:07:43;;;;;;;9.57;7.60;;;14.90;43.60;;;;;;5067791;28;20246;-71
2022/03/24 09:10:13;;;;;;;13.33;9.70;;;15.00;43.30;;;;;;5061110;28;20569;-70
2022/03/24 09:12:44;;;;;;;14.70;11.10;;;15.20;43.00;;;;;;5067251;28;20273;-69
2022/03/24 09:15:14;;;;;;;13.57;10.33;;;15.40;43.20;;;;;;5068089;28;20212;-70
2022/03/24 09:17:42;;;;;;;17.50;12.03;;;15.60;43.40;;;;;;5066942;28;20236;-70
2022/03/24 09:20:11;;;;;;;13.07;10.57;;;15.90;44.40;;;;;;5072966;28;20630;-72
2022/03/24 09:22:38;;;;;;;13.18;8.55;;;17.00;43.80;;;;;;5063826;28;20235;-70
2022/03/24 09:25:06;;;;;;;9.68;7.60;;;20.00;42.20;;;;;;5069595;28;20289;-70
2022/03/24 09:27:34;;;;;;;8.13;6.78;;;24.00;36.70;;;;;;5072784;28;20229;-71
2022/03/24 09:30:02;;;;;;;8.55;7.65;;;27.70;31.30;;;;;;5064755;28;20209;-70
2022/03/24 09:32:30;;;;;;;7.20;6.28;;;30.70;27.90;;;;;;5059720;28;20582;-71
2022/03/24 09:34:57;;;;;;;7.40;6.60;;;33.00;26.00;;;;;;5061120;28;20575;-68
2022/03/24 09:37:24;;;;;;;7.25;6.35;;;34.60;24.50;;;;;;5065950;28;20263;-71
2022/03/24 09:39:52;;;;;;;10.38;6.35;;;35.60;23.40;;;;;;5068776;28;20249;-71
2022/03/24 09:42:21;;;;;;;7.57;6.68;;;36.90;22.70;;;;;;5066852;28;20320;-71
2022/03/24 09:44:49;;;;;;;7.25;6.18;;;37.60;22.10;;;;;;5067114;28;20201;-70
2022/03/24 09:47:16;;;;;;;7.60;5.70;;;38.00;21.50;;;;;;5069550;28;20257;-70
2022/03/24 09:49:45;;;;;;;8.05;5.53;;;38.30;21.40;;;;;;5062075;28;20201;-70
2022/03/24 09:52:13;;;;;;;8.18;5.22;;;38.50;20.70;;;;;;5065257;28;20646;-70
2022/03/24 09:54:41;;;;;;;7.18;4.53;;;38.20;20.40;;;;;;5062956;28;20256;-71
2022/03/24 09:57:10;;;;;;;5.75;5.03;;;37.90;20.30;;;;;;5066734;28;20657;-69
2022/03/24 09:59:37;;;;;;;7.38;5.18;;;38.00;20.20;;;;;;5065416;28;20236;-69
2022/03/24 10:02:06;;;;;;;5.35;4.75;;;38.50;20.20;;;;;;5065028;28;20205;-71
2022/03/24 10:04:47;;;;;;;4.78;4.20;;;39.10;20.00;;;;;;5063890;28;20287;-70
2022/03/24 10:07:14;;;;;;;4.88;4.43;;;39.40;19.80;;;;;;5069669;28;20216;-68
2022/03/24 10:09:42;;;;;;;7.38;4.80;;;40.20;19.30;;;;;;5061602;28;20255;-71
2022/03/24 10:12:18;;;;;;;4.10;3.70;;;40.50;19.00;;;;;;5068650;28;20235;-69
2022/03/24 10:14:45;;;;;;;4.78;4.30;;;40.60;18.80;;;;;;5068281;28;20571;-68
2022/03/24 10:17:13;;;;;;;5.35;3.90;;;40.70;18.80;;;;;;5067518;28;20697;-68
2022/03/24 10:19:40;;;;;;;4.22;3.63;;;41.10;18.40;;;;;;5067903;28;20205;-69
2022/03/24 10:22:12;;;;;;;4.18;3.55;;;41.40;18.40;;;;;;5060120;28;20237;-69
2022/03/24 10:24:41;;;;;;;5.28;4.22;;;40.90;18.30;;;;;;5069135;28;20231;-69
2022/03/24 10:27:08;;;;;;;5.50;4.25;;;40.50;18.50;;;;;;5066489;28;20584;-70
2022/03/24 10:29:36;;;;;;;4.55;3.88;;;40.70;18.50;;;;;;5071198;28;20708;-74
2022/03/24 10:32:05;;;;;;;4.15;3.70;;;41.20;18.40;;;;;;5061451;28;20225;-71
2022/03/24 10:34:34;;;;;;;6.20;4.35;;;40.80;18.00;;;;;;5066940;28;20216;-71
2022/03/24 10:37:05;;;;;;;6.10;4.85;;;39.80;18.70;;;;;;5067539;28;20321;-70
2022/03/24 10:39:34;;;;;;;5.32;4.00;;;38.80;18.70;;;;;;5058303;28;20205;-71
2022/03/24 10:42:14;;;;;;;5.28;4.50;;;38.20;19.00;;;;;;5060960;28;20226;-70
2022/03/24 10:45:07;;;;;;;6.47;4.35;;;37.90;19.10;;;;;;5063403;28;20206;-71
2022/03/24 10:47:46;;;;;;;5.35;4.85;;;37.80;19.40;;;;;;5066735;28;20276;-70
2022/03/24 10:50:31;;;;;;;5.60;4.40;;;37.90;19.40;;;;;;5070844;28;20654;-71
2022/03/24 10:53:01;;;;;;;6.07;4.28;;;37.30;19.50;;;;;;5068750;28;20210;-70
2022/03/24 10:55:45;;;;;;;7.13;4.82;;;36.60;19.90;;;;;;5058221;28;20194;-69
2022/03/24 10:58:19;;;;;;;6.10;4.13;;;36.10;20.20;;;;;;5064658;28;20190;-70
2022/03/24 11:00:48;;;;;;;6.22;4.68;;;35.70;20.50;;;;;;5074253;28;20205;-69
2022/03/24 11:03:16;;;;;;;6.93;4.70;;;35.50;20.40;;;;;;5064925;28;20254;-69
2022/03/24 11:05:44;;;;;;;7.75;4.90;;;34.90;20.50;;;;;;5062592;28;20217;-70
2022/03/24 11:08:15;;;;;;;9.18;4.75;;;34.30;20.90;;;;;;5063516;28;20221;-70
2022/03/24 11:10:48;;;;;;;7.63;4.68;;;33.80;21.00;;;;;;5055044;28;20667;-70
2022/03/24 11:13:26;;;;;;;12.60;5.15;;;32.90;21.40;;;;;;5056557;28;20205;-69
2022/03/24 11:15:54;;;;;;;7.78;5.70;;;32.40;22.20;;;;;;5058659;28;20197;-72
2022/03/24 11:18:25;;;;;;;6.50;4.63;;;32.40;22.10;;;;;;5070932;28;20602;-71
2022/03/24 11:20:55;;;;;;;5.55;4.53;;;32.20;22.10;;;;;;5066521;28;20231;-69
2022/03/24 11:23:39;;;;;;;5.43;4.15;;;31.90;22.00;;;;;;5066991;28;20567;-70
2022/03/24 11:26:09;;;;;;;5.70;4.53;;;31.50;22.50;;;;;;5063676;28;20198;-70
2022/03/24 11:28:37;;;;;;;10.82;4.47;;;31.20;22.40;;;;;;5057036;28;20256;-70
2022/03/24 11:31:07;;;;;;;6.72;4.65;;;30.80;22.70;;;;;;5070651;28;20408;-71
2022/03/24 11:33:43;;;;;;;5.53;4.97;;;30.30;22.90;;;;;;5072171;28;20209;-70
2022/03/24 11:36:11;;;;;;;7.13;4.88;;;30.00;22.90;;;;;;5072149;28;20292;-71
2022/03/24 11:38:39;;;;;;;6.13;5.13;;;29.60;23.00;;;;;;5071244;28;20259;-70
2022/03/24 11:41:16;;;;;;;5.88;5.03;;;29.10;23.40;;;;;;5063228;28;20202;-72
2022/03/24 11:43:48;;;;;;;5.63;4.47;;;28.50;23.80;;;;;;5062865;28;20239;-69
2022/03/24 11:46:27;;;;;;;6.47;4.35;;;28.00;24.10;;;;;;5066586;28;20622;-69
2022/03/24 11:49:14;;;;;;;8.73;4.40;;;27.50;24.40;;;;;;5070816;28;20216;-71
2022/03/24 11:51:41;;;;;;;8.18;5.18;;;27.20;24.80;;;;;;5068474;28;20634;-70
2022/03/24 11:54:09;;;;;;;8.90;5.88;;;26.90;24.70;;;;;;5070981;28;20209;-70
2022/03/24 11:56:38;;;;;;;10.13;5.47;;;26.40;25.10;;;;;;5065479;28;20240;-70
2022/03/24 11:59:21;;;;;;;8.57;5.18;;;26.10;25.30;;;;;;5071094;28;20201;-70
2022/03/24 12:01:48;;;;;;;6.40;5.57;;;26.00;25.50;;;;;;5070784;28;20370;-69
2022/03/24 12:04:17;;;;;;;6.28;5.10;;;26.10;25.50;;;;;;5071119;28;20348;-70
2022/03/24 12:06:53;;;;;;;8.43;4.80;;;25.90;25.30;;;;;;5071501;28;20316;-70
2022/03/24 12:09:23;;;;;;;7.97;4.80;;;25.50;25.40;;;;;;5067908;28;20229;-70
2022/03/24 12:11:53;;;;;;;5.72;5.15;;;24.90;25.90;;;;;;5067223;28;20662;-72
2022/03/24 12:14:22;;;;;;;6.97;5.10;;;24.60;26.30;;;;;;5071037;28;20239;-72
2022/03/24 12:16:51;;;;;;;8.88;5.38;;;24.30;26.70;;;;;;5067829;28;20636;-73
2022/03/24 12:19:44;;;;;;;6.07;5.25;;;24.10;26.60;;;;;;5064087;28;20304;-71
2022/03/24 12:22:31;;;;;;;7.50;5.05;;;24.00;26.90;;;;;;5061707;28;20705;-74
2022/03/24 12:25:22;;;;;;;11.82;5.45;;;23.80;26.80;;;;;;5064822;28;20201;-70
2022/03/24 12:28:11;;;;;;;8.98;5.20;;;23.60;26.90;;;;;;5073471;28;20201;-71
2022/03/24 12:30:51;;;;;;;7.97;4.50;;;23.30;27.20;;;;;;5073740;28;20209;-71
2022/03/24 12:33:19;;;;;;;6.32;4.78;;;23.20;28.10;;;;;;5067057;28;20205;-71
2022/03/24 12:35:49;;;;;;;6.93;4.43;;;23.20;27.50;;;;;;5074318;28;20300;-71
2022/03/24 12:38:32;;;;;;;8.70;4.68;;;23.30;27.40;;;;;;5067778;28;20561;-71
2022/03/24 12:41:22;;;;;;;8.57;5.22;;;23.30;27.30;;;;;;5063814;28;20205;-71
2022/03/24 12:43:56;;;;;;;6.93;4.88;;;23.20;27.60;;;;;;5062923;28;20236;-70
2022/03/24 12:46:26;;;;;;;14.68;5.38;;;23.20;27.60;;;;;;5066570;28;20299;-70